Time;durP1;ratioP1;P1;durP2;ratioP2;P2;SDS_P1;SDS_P2;PMS_P1;PMS_P2;Temp;Humidity;BMP_temperature;BMP_pressure;BME280_temperature;BME280_humidity;BME280_pressure;Samples;Min_cycle;Max_cycle;Signal;HPM_P1;HPM_P2
2021/06/28 00:01:16;;;;;;;6.20;5.60;;;;;;;20.67;79.05;100043.13;1744854;81;21537;-77
2021/06/28 00:03:44;;;;;;;7.27;6.13;;;;;;;20.65;79.15;100039.95;1740063;81;21152;-77
2021/06/28 00:06:13;;;;;;;7.30;5.83;;;;;;;20.60;79.14;100049.11;1748392;81;20992;-76
2021/06/28 00:08:41;;;;;;;7.03;5.70;;;;;;;20.60;79.31;100053.74;1747804;81;21152;-78
2021/06/28 00:11:09;;;;;;;7.13;6.10;;;;;;;20.59;79.58;100052.14;1753882;81;20975;-76
2021/06/28 00:13:37;;;;;;;6.13;5.53;;;;;;;20.60;79.40;100055.10;1738178;81;21070;-76
2021/06/28 00:16:05;;;;;;;9.57;6.30;;;;;;;20.56;79.17;100054.17;1734776;82;21061;-77
2021/06/28 00:18:33;;;;;;;6.77;5.67;;;;;;;20.53;79.16;100060.27;1725529;81;21105;-77
2021/06/28 00:21:01;;;;;;;5.83;5.23;;;;;;;20.52;79.29;100061.40;1726070;81;21029;-78
2021/06/28 00:23:28;;;;;;;7.33;5.53;;;;;;;20.51;79.42;100066.61;1757043;79;20979;-78
2021/06/28 00:25:56;;;;;;;6.53;5.60;;;;;;;20.48;79.39;100060.46;1730045;80;21046;-76
2021/06/28 00:28:24;;;;;;;6.60;5.80;;;;;;;20.46;79.52;100059.42;1727884;82;21193;-77
2021/06/28 00:30:52;;;;;;;7.17;5.63;;;;;;;20.44;79.23;100056.84;1711745;82;21150;-78
2021/06/28 00:33:19;;;;;;;6.57;5.73;;;;;;;20.44;79.30;100069.05;1732270;81;21059;-77
2021/06/28 00:35:47;;;;;;;7.30;5.10;;;;;;;20.44;79.53;100063.05;1726303;81;20990;-78
2021/06/28 00:38:14;;;;;;;6.80;5.67;;;;;;;20.45;79.62;100070.05;1718889;83;20977;-77
2021/06/28 00:40:42;;;;;;;6.33;5.20;;;;;;;20.45;79.39;100063.84;1723925;81;21156;-76
2021/06/28 00:43:09;;;;;;;7.03;5.40;;;;;;;20.47;79.45;100062.39;1737149;82;21039;-77
2021/06/28 00:45:40;;;;;;;6.53;5.07;;;;;;;20.51;79.27;100072.03;1733852;81;21035;-77
2021/06/28 00:48:12;;;;;;;6.20;5.30;;;;;;;20.53;79.08;100066.50;1739858;82;21106;-78
2021/06/28 00:50:47;;;;;;;5.67;5.03;;;;;;;20.55;78.92;100082.44;1730922;81;21569;-77
2021/06/28 00:53:15;;;;;;;5.80;4.90;;;;;;;20.56;78.54;100069.88;1736584;80;21027;-78
2021/06/28 00:55:44;;;;;;;6.27;4.90;;;;;;;20.54;78.61;100065.94;1736138;80;21050;-81
2021/06/28 00:58:12;;;;;;;6.90;5.53;;;;;;;20.52;78.56;100073.61;1759911;81;21062;-78
2021/06/28 01:00:39;;;;;;;7.00;4.90;;;;;;;20.52;78.57;100065.47;1755553;81;21049;-79
2021/06/28 01:03:06;;;;;;;7.10;5.27;;;;;;;20.51;78.46;100080.17;1752615;81;21022;-77
2021/06/28 01:05:36;;;;;;;7.70;5.60;;;;;;;20.46;78.40;100066.77;1754336;81;21644;-78
2021/06/28 01:08:04;;;;;;;6.17;5.27;;;;;;;20.41;78.54;100077.28;1753123;80;21156;-77
2021/06/28 01:10:31;;;;;;;5.90;5.30;;;;;;;20.38;78.60;100076.03;1742905;81;21105;-78
2021/06/28 01:12:57;;;;;;;6.17;5.57;;;;;;;20.36;78.63;100089.13;1759461;79;21415;-78
2021/06/28 01:15:25;;;;;;;9.37;5.67;;;;;;;20.34;78.88;100078.40;1762165;81;20999;-78
2021/06/28 01:17:52;;;;;;;7.17;5.60;;;;;;;20.34;79.05;100087.89;1751879;81;21146;-79
2021/06/28 01:20:25;;;;;;;6.17;5.30;;;;;;;20.35;78.85;100084.83;1758327;79;21491;-76
2021/06/28 01:22:54;;;;;;;6.20;5.10;;;;;;;20.32;78.57;100090.13;1746954;81;21529;-77
2021/06/28 01:25:24;;;;;;;6.90;5.70;;;;;;;20.31;78.83;100098.84;1740065;81;21502;-76
2021/06/28 01:27:51;;;;;;;7.67;5.60;;;;;;;20.28;78.68;100100.06;1763625;81;21019;-77
2021/06/28 01:30:23;;;;;;;6.00;5.23;;;;;;;20.26;78.67;100102.31;1763175;79;21155;-81
2021/06/28 01:32:49;;;;;;;6.90;4.78;;;;;;;20.23;78.63;100096.98;1751293;79;21034;-79
2021/06/28 01:35:16;;;;;;;7.60;5.70;;;;;;;20.21;78.71;100091.69;1774028;79;21022;-79
2021/06/28 01:37:45;;;;;;;6.03;5.23;;;;;;;20.20;78.83;100093.58;1747946;81;21633;-76
2021/06/28 01:40:12;;;;;;;6.07;5.17;;;;;;;20.21;78.75;100085.69;1736859;81;21109;-77
2021/06/28 01:42:39;;;;;;;6.93;5.00;;;;;;;20.21;78.80;100085.69;1747797;79;21127;-76
2021/06/28 01:45:09;;;;;;;5.73;5.13;;;;;;;20.22;78.69;100083.20;1719804;82;21028;-78
2021/06/28 01:47:37;;;;;;;6.65;5.37;;;;;;;20.23;78.61;100096.98;1710931;83;21110;-77
2021/06/28 01:50:06;;;;;;;6.07;5.30;;;;;;;20.21;78.68;100085.69;1722155;82;21100;-78
2021/06/28 01:52:33;;;;;;;5.53;5.03;;;;;;;20.19;78.65;100091.21;1740271;81;21723;-77
2021/06/28 01:55:01;;;;;;;6.20;5.27;;;;;;;20.10;78.58;100082.61;1753819;81;21949;-77
2021/06/28 01:57:28;;;;;;;6.13;5.33;;;;;;;20.05;78.79;100077.94;1755363;81;20940;-78
2021/06/28 01:59:55;;;;;;;6.10;5.30;;;;;;;20.00;79.11;100086.26;1748932;81;20971;-78
2021/06/28 02:02:21;;;;;;;6.37;5.07;;;;;;;19.97;79.26;100082.86;1741741;81;21048;-80
2021/06/28 02:04:48;;;;;;;6.20;4.80;;;;;;;19.96;79.36;100090.77;1745606;81;21069;-78
2021/06/28 02:07:16;;;;;;;6.60;5.30;;;;;;;19.91;79.41;100077.66;1747389;81;21621;-81
2021/06/28 02:09:42;;;;;;;6.23;5.47;;;;;;;19.84;79.60;100081.99;1749826;81;21039;-77
2021/06/28 02:12:10;;;;;;;6.27;5.10;;;;;;;19.78;79.79;100077.92;1740916;79;21023;-76
2021/06/28 02:14:37;;;;;;;6.53;5.33;;;;;;;19.73;80.04;100078.89;1742585;81;21138;-77
2021/06/28 02:17:03;;;;;;;7.23;5.60;;;;;;;19.68;80.29;100079.89;1751217;81;21183;-77
2021/06/28 02:19:30;;;;;;;6.20;5.60;;;;;;;19.63;80.49;100082.78;1730567;81;21154;-78
2021/06/28 02:21:57;;;;;;;6.73;5.50;;;;;;;19.59;80.72;100094.02;1748554;81;21051;-79
2021/06/28 02:24:24;;;;;;;7.00;5.53;;;;;;;19.54;80.83;100086.08;1745954;81;21026;-77
2021/06/28 02:26:52;;;;;;;7.43;5.83;;;;;;;19.52;80.79;100083.48;1743276;81;21126;-77
2021/06/28 02:29:18;;;;;;;7.80;5.77;;;;;;;19.51;80.94;100088.08;1741762;81;21020;-76
2021/06/28 02:31:46;;;;;;;7.20;5.70;;;;;;;19.49;80.99;100086.84;1737225;80;21963;-78
2021/06/28 02:34:12;;;;;;;7.93;5.87;;;;;;;19.44;80.95;100098.08;1737015;82;20956;-77
2021/06/28 02:36:40;;;;;;;6.73;6.03;;;;;;;19.42;81.05;100092.78;1700401;81;21038;-76
2021/06/28 02:39:08;;;;;;;8.57;5.80;;;;;;;19.38;81.40;100096.70;1735445;82;21169;-78
2021/06/28 02:41:35;;;;;;;7.57;5.77;;;;;;;19.36;81.68;100098.94;1715996;82;21102;-79
2021/06/28 02:44:02;;;;;;;7.37;6.00;;;;;;;19.34;81.43;100097.10;1745355;80;21568;-78
2021/06/28 02:46:29;;;;;;;7.03;5.50;;;;;;;19.32;81.46;100108.05;1735806;80;21062;-78
2021/06/28 02:48:56;;;;;;;7.43;5.37;;;;;;;19.30;81.40;100098.88;1726506;83;20975;-78
2021/06/28 02:51:23;;;;;;;5.97;5.37;;;;;;;19.28;81.73;100096.27;1733791;82;21526;-78
2021/06/28 02:53:50;;;;;;;8.67;6.00;;;;;;;19.24;81.87;100108.30;1744225;79;21090;-80
2021/06/28 02:56:19;;;;;;;6.77;5.73;;;;;;;19.22;81.85;100110.56;1734865;82;21931;-78
2021/06/28 02:58:53;;;;;;;7.27;6.27;;;;;;;19.19;81.81;100103.09;1746501;80;21502;-79
2021/06/28 03:01:22;;;;;;;7.70;6.30;;;;;;;19.16;81.96;100096.41;1723746;81;21065;-78
2021/06/28 03:03:49;;;;;;;6.90;5.90;;;;;;;19.16;82.06;100113.22;1747877;79;21107;-78
2021/06/28 03:06:16;;;;;;;6.47;5.47;;;;;;;19.17;82.10;100112.09;1732174;81;21565;-79
2021/06/28 03:08:43;;;;;;;8.80;6.17;;;;;;;19.18;81.96;100113.12;1726913;81;21113;-78
2021/06/28 03:11:13;;;;;;;8.73;5.83;;;;;;;19.18;81.94;100115.02;1723902;81;21127;-78
2021/06/28 03:13:41;;;;;;;6.07;5.47;;;;;;;19.17;82.06;100114.80;1743731;79;21568;-76
2021/06/28 03:16:09;;;;;;;8.87;6.33;;;;;;;19.19;82.01;100115.27;1765547;80;21565;-77
2021/06/28 03:18:36;;;;;;;7.83;6.20;;;;;;;19.23;81.88;100122.19;1749601;80;21067;-77
2021/06/28 03:21:04;;;;;;;9.20;6.57;;;;;;;19.27;81.78;100121.20;1746773;81;21170;-77
2021/06/28 03:23:31;;;;;;;7.10;6.20;;;;;;;19.31;81.58;100114.00;1746782;79;21062;-77
2021/06/28 03:25:57;;;;;;;8.00;6.03;;;;;;;19.37;81.36;100114.62;1758611;79;21009;-80
2021/06/28 03:28:24;;;;;;;7.93;5.63;;;;;;;19.41;81.03;100113.66;1743330;81;21091;-79
2021/06/28 03:30:51;;;;;;;8.27;6.27;;;;;;;19.45;80.86;100111.87;1743581;80;21138;-79
2021/06/28 03:33:18;;;;;;;9.07;6.30;;;;;;;19.51;80.45;100115.73;1740141;80;21148;-76
2021/06/28 03:35:45;;;;;;;6.77;6.07;;;;;;;19.52;79.97;100111.92;1748627;81;20996;-78
2021/06/28 03:38:12;;;;;;;7.03;5.77;;;;;;;19.51;79.90;100104.33;1756511;81;21063;-78
2021/06/28 03:40:39;;;;;;;8.10;5.73;;;;;;;19.52;79.77;100124.11;1736253;81;21047;-78
2021/06/28 03:43:08;;;;;;;9.87;6.50;;;;;;;19.50;79.77;100125.78;1752845;79;21036;-79
2021/06/28 03:45:35;;;;;;;8.70;6.13;;;;;;;19.49;79.46;100130.19;1746156;79;21182;-79
2021/06/28 03:48:03;;;;;;;7.17;5.70;;;;;;;19.50;79.19;100122.28;1743326;81;21531;-78
2021/06/28 03:50:30;;;;;;;8.93;6.43;;;;;;;19.55;79.21;100124.81;1761164;81;21011;-79
2021/06/28 03:52:56;;;;;;;8.60;6.03;;;;;;;19.59;79.18;100140.64;1742982;81;21053;-76
2021/06/28 03:55:23;;;;;;;7.20;5.83;;;;;;;19.61;79.38;100128.89;1751525;79;21375;-77
2021/06/28 03:57:50;;;;;;;8.10;5.80;;;;;;;19.62;79.25;100134.56;1744389;81;21110;-77
2021/06/28 04:00:20;;;;;;;9.63;6.37;;;;;;;19.65;79.29;100133.95;1742333;81;21007;-80
2021/06/28 04:02:47;;;;;;;7.27;6.17;;;;;;;19.66;78.71;100134.17;1753761;81;21062;-78
2021/06/28 04:05:19;;;;;;;7.83;5.90;;;;;;;19.62;78.47;100130.50;1751049;79;20994;-79
2021/06/28 04:07:44;;;;;;;7.37;5.80;;;;;;;19.62;78.54;100156.24;1774658;80;21027;-77
2021/06/28 04:10:14;;;;;;;7.63;5.90;;;;;;;19.64;78.15;100133.70;1751326;81;21360;-77
2021/06/28 04:12:40;;;;;;;8.93;6.30;;;;;;;19.63;78.40;100137.50;1762010;81;21081;-78
2021/06/28 04:15:10;;;;;;;7.40;6.10;;;;;;;19.66;78.17;100138.23;1750946;79;21080;-78
2021/06/28 04:17:43;;;;;;;6.73;6.03;;;;;;;19.70;77.74;100132.95;1755287;80;21070;-77
2021/06/28 04:20:12;;;;;;;7.80;6.13;;;;;;;19.74;77.64;100133.88;1733348;81;20972;-78
2021/06/28 04:22:39;;;;;;;6.53;5.93;;;;;;;19.73;77.53;100138.50;1717256;81;21125;-78
2021/06/28 04:25:10;;;;;;;9.20;6.20;;;;;;;19.71;77.48;100135.34;1707248;81;20999;-77
2021/06/28 04:27:36;;;;;;;5.93;5.03;;;;;;;19.74;77.52;100139.30;1716225;83;21043;-77
2021/06/28 04:30:06;;;;;;;7.53;5.50;;;;;;;19.78;77.31;100141.03;1717125;83;21099;-76
2021/06/28 04:32:34;;;;;;;7.10;5.40;;;;;;;19.83;77.31;100140.83;1720272;81;21046;-78
2021/06/28 04:35:11;;;;;;;8.33;5.13;;;;;;;19.90;76.78;100138.95;1714133;82;21692;-79
2021/06/28 04:37:38;;;;;;;6.27;5.60;;;;;;;19.93;76.31;100133.44;1723108;82;21558;-78
2021/06/28 04:40:07;;;;;;;7.83;5.50;;;;;;;19.97;76.15;100132.44;1741578;81;21070;-78
2021/06/28 04:42:34;;;;;;;6.50;5.40;;;;;;;20.04;75.92;100132.73;1720610;81;21081;-77
2021/06/28 04:45:01;;;;;;;7.33;5.63;;;;;;;20.10;75.51;100127.34;1708987;81;21133;-78
2021/06/28 04:47:28;;;;;;;6.37;5.30;;;;;;;20.17;75.38;100141.72;1710669;83;21140;-76
2021/06/28 04:49:54;;;;;;;8.40;5.63;;;;;;;20.19;75.04;100139.45;1698197;81;21087;-78
2021/06/28 04:52:21;;;;;;;6.10;5.20;;;;;;;20.22;74.57;100153.70;1720120;82;21561;-77
2021/06/28 04:54:47;;;;;;;6.30;5.70;;;;;;;20.23;74.23;100137.66;1718317;81;21056;-78
2021/06/28 04:57:16;;;;;;;6.40;5.43;;;;;;;20.28;74.41;100136.11;1734459;81;21091;-77
2021/06/28 04:59:43;;;;;;;7.17;5.47;;;;;;;20.35;74.62;100140.44;1765225;81;22159;-80
2021/06/28 05:02:10;;;;;;;8.97;5.97;;;;;;;20.42;74.18;100154.02;1750602;80;21113;-78
2021/06/28 05:04:37;;;;;;;6.87;5.67;;;;;;;20.43;73.96;100140.69;1756037;79;21300;-80
2021/06/28 05:07:04;;;;;;;8.57;5.93;;;;;;;20.43;73.79;100148.25;1726338;81;21035;-77
2021/06/28 05:09:30;;;;;;;6.70;5.17;;;;;;;20.39;73.56;100148.70;1734522;82;22259;-79
2021/06/28 05:11:57;;;;;;;6.53;5.33;;;;;;;20.38;73.79;100138.98;1726476;82;21159;-78
2021/06/28 05:14:24;;;;;;;5.97;5.37;;;;;;;20.41;73.80;100137.53;1709422;81;21140;-77
2021/06/28 05:16:51;;;;;;;7.90;5.50;;;;;;;20.46;73.48;100141.38;1742295;79;21047;-79
2021/06/28 05:19:18;;;;;;;6.60;5.90;;;;;;;20.54;73.67;100132.41;1760803;80;21055;-77
2021/06/28 05:21:45;;;;;;;6.37;5.20;;;;;;;20.65;73.34;100132.77;1738426;81;21572;-78
2021/06/28 05:24:12;;;;;;;5.77;5.17;;;;;;;20.74;73.09;100121.27;1745448;81;21683;-76
2021/06/28 05:26:39;;;;;;;8.20;5.50;;;;;;;20.74;72.06;100141.06;1739598;79;21444;-77
2021/06/28 05:29:06;;;;;;;7.20;5.97;;;;;;;20.73;71.55;100124.55;1750438;81;21129;-76
2021/06/28 05:31:34;;;;;;;7.17;5.70;;;;;;;20.76;71.64;100129.85;1749552;80;21046;-78
2021/06/28 05:34:01;;;;;;;6.20;5.10;;;;;;;20.82;71.46;100135.30;1737071;81;21043;-77
2021/06/28 05:36:27;;;;;;;6.10;5.03;;;;;;;20.88;71.58;100129.09;1742407;79;21117;-78
2021/06/28 05:38:55;;;;;;;7.93;5.60;;;;;;;20.96;71.76;100126.30;1750953;80;21062;-76
2021/06/28 05:41:22;;;;;;;6.10;4.87;;;;;;;21.02;71.01;100130.35;1747134;81;21058;-76
2021/06/28 05:43:49;;;;;;;5.97;5.10;;;;;;;21.00;70.15;100127.77;1743569;81;21031;-79
2021/06/28 05:46:15;;;;;;;9.13;5.33;;;;;;;20.99;70.37;100138.38;1749642;79;21082;-78
2021/06/28 05:48:42;;;;;;;7.87;5.57;;;;;;;21.09;70.09;100132.52;1742739;79;21164;-76
2021/06/28 05:51:09;;;;;;;6.30;4.80;;;;;;;21.23;69.43;100132.20;1726971;81;21142;-78
2021/06/28 05:53:38;;;;;;;7.57;4.60;;;;;;;21.34;69.35;100127.89;1730458;81;21059;-80
2021/06/28 05:56:07;;;;;;;6.53;4.93;;;;;;;21.44;68.93;100124.75;1745030;79;21564;-77
2021/06/28 05:58:34;;;;;;;6.60;5.23;;;;;;;21.54;67.77;100131.08;1742464;81;21631;-79
2021/06/28 06:01:01;;;;;;;5.80;4.70;;;;;;;21.65;68.10;100128.72;1735045;80;21465;-80
2021/06/28 06:03:27;;;;;;;6.50;4.90;;;;;;;21.74;67.39;100136.16;1745861;80;21012;-77
2021/06/28 06:05:55;;;;;;;6.23;5.07;;;;;;;21.81;66.86;100127.99;1729731;81;21561;-78
2021/06/28 06:08:23;;;;;;;9.13;4.80;;;;;;;21.90;66.61;100123.22;1714860;82;21153;-78
2021/06/28 06:10:52;;;;;;;4.87;4.37;;;;;;;21.96;66.53;100124.00;1708791;82;21064;-73
2021/06/28 06:13:20;;;;;;;6.90;4.97;;;;;;;22.06;66.39;100124.09;1704297;81;21053;-73
2021/06/28 06:18:14;;;;;;;8.00;4.93;;;;;;;22.24;64.56;100132.23;1755555;79;21053;-72
2021/06/28 06:20:41;;;;;;;5.50;4.13;;;;;;;22.26;63.48;100132.44;1718726;81;21106;-71
2021/06/28 06:23:10;;;;;;;5.23;4.33;;;;;;;22.27;63.29;100140.81;1714909;81;21040;-72
2021/06/28 06:25:39;;;;;;;6.87;4.53;;;;;;;22.33;63.75;100144.88;1713004;81;21137;-72
2021/06/28 06:28:08;;;;;;;5.17;4.30;;;;;;;22.48;64.09;100137.34;1751918;79;21576;-73
2021/06/28 06:30:36;;;;;;;5.43;4.40;;;;;;;22.65;63.37;100132.94;1731163;82;32561;-72
2021/06/28 06:33:04;;;;;;;4.70;4.17;;;;;;;22.83;62.67;100145.65;1724357;81;21109;-73
2021/06/28 06:35:33;;;;;;;4.90;3.80;;;;;;;22.97;62.24;100150.72;1750259;80;21702;-70
2021/06/28 06:38:00;;;;;;;6.53;3.90;;;;;;;23.00;60.76;100150.57;1743873;79;21987;-71
2021/06/28 06:40:28;;;;;;;5.13;4.13;;;;;;;23.01;60.98;100164.43;1738988;80;20976;-73
2021/06/28 06:42:56;;;;;;;7.57;4.17;;;;;;;23.12;60.73;100150.50;1739814;80;21028;-72
2021/06/28 06:45:23;;;;;;;6.80;4.17;;;;;;;23.28;60.34;100149.14;1715411;81;21106;-73
2021/06/28 06:47:50;;;;;;;7.47;4.27;;;;;;;23.47;59.84;100159.33;1728990;81;21808;-71
2021/06/28 06:50:18;;;;;;;5.50;3.93;;;;;;;23.60;58.84;100164.89;1709587;82;21139;-72
2021/06/28 06:52:46;;;;;;;6.63;4.07;;;;;;;23.69;58.58;100153.26;1745109;81;21280;-73
2021/06/28 06:55:13;;;;;;;6.57;4.20;;;;;;;23.77;58.31;100156.92;1753328;81;21038;-74
2021/06/28 06:57:42;;;;;;;4.50;3.53;;;;;;;23.83;58.42;100164.47;1751490;79;21134;-73
2021/06/28 07:00:15;;;;;;;5.87;4.00;;;;;;;23.91;58.83;100160.53;1740251;79;21046;-76
2021/06/28 07:02:43;;;;;;;5.53;4.67;;;;;;;24.00;58.61;100164.64;1744041;80;21158;-73
2021/06/28 07:05:11;;;;;;;5.57;4.00;;;;;;;24.05;58.05;100164.38;1731438;81;21082;-73
2021/06/28 07:07:40;;;;;;;5.57;3.50;;;;;;;24.09;58.23;100158.41;1752534;81;21533;-73
2021/06/28 07:10:09;;;;;;;6.20;3.73;;;;;;;24.06;58.16;100163.80;1738224;79;21089;-72
2021/06/28 07:12:38;;;;;;;5.08;3.70;;;;;;;23.97;58.20;100179.00;1744040;80;26446;-72
2021/06/28 07:15:07;;;;;;;4.47;3.40;;;;;;;23.89;57.98;100166.36;1731705;81;21143;-79
2021/06/28 07:17:34;;;;;;;4.43;3.80;;;;;;;23.87;58.75;100173.52;1739919;80;21097;-77
2021/06/28 07:20:04;;;;;;;4.50;3.20;;;;;;;23.92;58.07;100171.08;1732352;81;21098;-79
2021/06/28 07:22:30;;;;;;;5.57;3.47;;;;;;;23.98;57.54;100175.11;1728090;81;21067;-78
2021/06/28 07:24:58;;;;;;;5.10;3.17;;;;;;;24.11;57.03;100164.86;1726459;82;21139;-76
2021/06/28 07:27:24;;;;;;;4.17;3.10;;;;;;;24.23;56.46;100165.31;1716367;81;21194;-77
2021/06/28 07:29:51;;;;;;;4.50;3.10;;;;;;;24.36;56.82;100170.06;1734522;82;21035;-78
2021/06/28 07:32:18;;;;;;;5.37;3.40;;;;;;;24.51;56.75;100168.66;1737210;80;21090;-78
2021/06/28 07:34:44;;;;;;;6.27;3.77;;;;;;;24.60;55.77;100175.81;1725481;82;21042;-77
2021/06/28 07:37:11;;;;;;;5.20;3.40;;;;;;;24.57;55.89;100174.01;1724293;81;21027;-78
2021/06/28 07:39:38;;;;;;;6.07;3.57;;;;;;;24.45;55.53;100182.92;1739879;81;22459;-77
2021/06/28 07:42:05;;;;;;;4.80;3.67;;;;;;;24.33;55.89;100179.17;1744914;81;21054;-77
2021/06/28 07:44:32;;;;;;;4.43;3.20;;;;;;;24.21;56.27;100170.33;1750958;79;21101;-80
2021/06/28 07:46:59;;;;;;;3.97;2.90;;;;;;;24.20;56.37;100174.22;1731371;81;21051;-77
2021/06/28 07:49:26;;;;;;;4.83;3.30;;;;;;;24.20;56.05;100172.27;1748572;79;21094;-77
2021/06/28 07:51:52;;;;;;;5.60;2.93;;;;;;;24.29;55.71;100171.49;1740704;81;21323;-79
2021/06/28 07:54:19;;;;;;;6.83;3.13;;;;;;;24.33;55.14;100172.92;1737509;80;21034;-77
2021/06/28 07:56:45;;;;;;;5.63;3.03;;;;;;;24.31;55.51;100170.54;1735835;81;21506;-77
2021/06/28 07:59:12;;;;;;;4.17;3.10;;;;;;;24.37;55.12;100174.36;1749760;79;21058;-78
2021/06/28 08:01:38;;;;;;;5.80;3.37;;;;;;;24.43;55.31;100168.28;1725423;81;21050;-78
2021/06/28 08:04:05;;;;;;;3.87;3.00;;;;;;;24.50;55.39;100172.52;1716888;82;21804;-82
2021/06/28 08:06:33;;;;;;;5.57;3.43;;;;;;;24.55;55.94;100193.30;1739693;81;21145;-76
2021/06/28 08:09:00;;;;;;;3.90;3.20;;;;;;;24.48;55.17;100181.66;1718252;82;21104;-78
2021/06/28 08:11:28;;;;;;;4.80;3.33;;;;;;;24.46;55.79;100183.94;1743131;79;21546;-78
2021/06/28 08:13:55;;;;;;;4.23;3.17;;;;;;;24.55;55.48;100192.71;1777180;80;21051;-77
2021/06/28 08:16:23;;;;;;;5.63;3.37;;;;;;;24.69;54.77;100185.95;1740524;81;21144;-75
2021/06/28 08:18:53;;;;;;;4.63;3.50;;;;;;;24.86;54.68;100187.42;1748990;81;20953;-78
2021/06/28 08:21:20;;;;;;;5.50;3.53;;;;;;;25.03;54.75;100186.37;1747916;79;21108;-76
2021/06/28 08:23:48;;;;;;;4.00;3.60;;;;;;;25.21;54.57;100185.94;1740832;81;21023;-77
2021/06/28 08:26:17;;;;;;;4.83;3.47;;;;;;;25.39;53.73;100192.47;1755880;81;21055;-77
2021/06/28 08:28:45;;;;;;;5.93;3.43;;;;;;;25.45;52.68;100191.01;1735363;81;21628;-77
2021/06/28 08:31:14;;;;;;;5.12;3.70;;;;;;;25.35;52.81;100191.62;1742165;81;21620;-78
2021/06/28 08:33:43;;;;;;;5.20;3.60;;;;;;;25.24;53.14;100198.88;1760470;80;21004;-78
2021/06/28 08:36:11;;;;;;;4.30;3.60;;;;;;;25.18;53.71;100194.86;1754358;80;21149;-72
2021/06/28 08:38:38;;;;;;;4.67;3.60;;;;;;;25.14;53.59;100194.80;1722615;81;21057;-72
2021/06/28 08:41:05;;;;;;;4.50;3.70;;;;;;;25.19;53.20;100195.84;1755998;81;21143;-79
2021/06/28 08:43:32;;;;;;;6.17;3.70;;;;;;;25.26;53.25;100197.91;1748867;80;21544;-78
2021/06/28 08:45:59;;;;;;;4.63;3.50;;;;;;;25.38;53.17;100211.41;1742527;81;21097;-76
2021/06/28 08:48:26;;;;;;;5.00;3.40;;;;;;;25.42;52.52;100199.94;1748235;81;21390;-77
2021/06/28 08:50:54;;;;;;;4.67;3.43;;;;;;;25.41;52.05;100205.20;1756668;81;21121;-78
2021/06/28 08:53:22;;;;;;;3.67;3.30;;;;;;;25.40;52.17;100214.57;1762401;81;21568;-77
2021/06/28 08:55:51;;;;;;;4.43;2.97;;;;;;;25.37;51.69;100211.20;1750149;81;21129;-78
2021/06/28 08:58:19;;;;;;;5.73;3.50;;;;;;;25.33;52.27;100214.43;1736996;81;21129;-77
2021/06/28 09:00:47;;;;;;;5.00;3.10;;;;;;;25.23;52.39;100213.67;1708508;81;21075;-77
2021/06/28 09:03:14;;;;;;;4.30;3.47;;;;;;;25.11;52.64;100208.38;1734953;81;21090;-77
2021/06/28 09:06:03;;;;;;;6.00;3.63;;;;;;;24.93;52.66;100208.83;1757634;81;21976;-78
2021/06/28 09:08:32;;;;;;;5.70;3.20;;;;;;;24.89;52.61;100223.00;1758762;81;21087;-77
2021/06/28 09:10:59;;;;;;;3.83;2.90;;;;;;;24.97;52.58;100219.81;1761183;79;21085;-77
2021/06/28 09:13:45;;;;;;;5.13;3.00;;;;;;;25.08;52.16;100229.59;1710212;83;20965;-77
2021/06/28 09:16:25;;;;;;;4.27;3.10;;;;;;;25.16;52.69;100219.80;1735534;80;20991;-77
2021/06/28 09:19:06;;;;;;;4.57;2.90;;;;;;;25.27;52.58;100224.09;1721975;81;21160;-77
2021/06/28 09:21:51;;;;;;;;;;;;;;;25.42;51.12;100219.08;1760506;79;20987;-77
2021/06/28 09:24:37;;;;;;;7.60;2.90;;;;;;;25.54;50.43;100223.58;1713278;81;20098;-76
2021/06/28 09:27:16;;;;;;;3.37;2.83;;;;;;;25.58;50.79;100222.27;1707446;83;20965;-74
2021/06/28 09:29:51;;;;;;;4.33;2.73;;;;;;;25.69;50.57;100219.89;1706485;81;21070;-76
2021/06/28 09:32:18;;;;;;;4.67;2.90;;;;;;;25.92;50.35;100222.61;1704078;81;21247;-76
2021/06/28 09:34:46;;;;;;;3.27;2.77;;;;;;;26.08;48.78;100214.23;1709912;81;21066;-77
2021/06/28 09:37:27;;;;;;;4.03;3.20;;;;;;;26.16;48.35;100220.61;1727395;81;21048;-77
2021/06/28 09:39:56;;;;;;;4.47;3.52;;;;;;;26.17;48.81;100221.59;1755799;81;21134;-78
2021/06/28 09:42:26;;;;;;;9.83;8.73;;;;;;;26.16;48.46;100224.72;1741444;81;21481;-77
2021/06/28 09:45:01;;;;;;;5.73;4.60;;;;;;;26.09;49.44;100221.86;1736562;80;21126;-76
2021/06/28 09:47:30;;;;;;;6.10;4.70;;;;;;;26.04;49.55;100216.72;1735254;81;21067;-76
2021/06/28 09:50:15;;;;;;;5.53;3.57;;;;;;;25.94;48.85;100229.09;1734385;81;21022;-78
2021/06/28 09:52:44;;;;;;;4.50;3.27;;;;;;;25.80;49.33;100229.68;1737379;80;21058;-76
2021/06/28 09:55:19;;;;;;;4.57;2.87;;;;;;;25.70;49.40;100213.87;1750295;81;21313;-74
2021/06/28 09:58:21;;;;;;;4.70;3.60;;;;;;;25.71;49.99;100220.33;1745769;81;21086;-77
2021/06/28 10:00:49;;;;;;;5.60;3.60;;;;;;;25.80;49.81;100220.63;1733632;81;21580;-76
2021/06/28 10:03:41;;;;;;;7.40;5.33;;;;;;;25.80;49.84;100222.84;1739996;81;21003;-74
2021/06/28 10:06:16;;;;;;;7.37;4.47;;;;;;;25.78;49.28;100226.48;1749918;81;21078;-76
2021/06/28 10:08:45;;;;;;;5.23;3.97;;;;;;;25.69;49.84;100221.26;1733145;81;21059;-77
2021/06/28 10:11:16;;;;;;;4.10;2.87;;;;;;;25.70;50.06;100220.70;1742081;81;21747;-75
2021/06/28 10:13:55;;;;;;;4.87;3.10;;;;;;;25.79;49.45;100218.48;1737855;81;21409;-76
2021/06/28 10:16:24;;;;;;;4.37;3.03;;;;;;;25.93;49.91;100209.16;1737912;81;21114;-78
2021/06/28 10:18:55;;;;;;;4.50;3.23;;;;;;;26.17;49.43;100212.60;1743652;81;21050;-77
2021/06/28 10:21:23;;;;;;;3.85;2.87;;;;;;;26.38;49.29;100211.48;1747719;81;21632;-82
2021/06/28 10:23:49;;;;;;;4.47;2.97;;;;;;;26.47;47.51;100215.33;1739911;81;21113;-75
2021/06/28 10:26:17;;;;;;;4.10;3.23;;;;;;;26.41;48.01;100218.18;1746855;81;20999;-76
2021/06/28 10:28:44;;;;;;;3.87;2.60;;;;;;;26.28;48.32;100216.25;1756319;81;21038;-77
2021/06/28 10:31:11;;;;;;;5.07;3.00;;;;;;;26.16;48.44;100220.61;1742966;81;21091;-77
2021/06/28 10:33:39;;;;;;;6.17;2.90;;;;;;;26.05;47.97;100221.03;1743085;81;21027;-80
2021/06/28 10:36:09;;;;;;;4.23;2.93;;;;;;;26.00;48.16;100234.47;1743377;81;21152;-75
2021/06/28 10:38:55;;;;;;;5.30;3.20;;;;;;;26.07;48.22;100226.94;1731120;81;21509;-77
2021/06/28 10:41:46;;;;;;;4.20;2.83;;;;;;;26.22;48.14;100232.01;1742929;81;21632;-73
2021/06/28 10:44:15;;;;;;;9.93;7.80;;;;;;;26.37;48.00;100216.77;1740855;81;21098;-71
2021/06/28 10:46:50;;;;;;;4.53;3.03;;;;;;;26.44;47.77;100225.66;1740162;81;21078;-73
2021/06/28 10:49:44;;;;;;;4.73;3.23;;;;;;;26.48;47.45;100221.61;1729809;81;21112;-80
2021/06/28 10:52:11;;;;;;;3.80;3.17;;;;;;;26.57;47.32;100220.17;1727328;81;21054;-78
2021/06/28 10:54:38;;;;;;;5.57;2.93;;;;;;;26.63;46.97;100220.05;1746178;81;21039;-77
2021/06/28 10:57:05;;;;;;;5.07;3.37;;;;;;;26.56;46.98;100231.52;1763280;80;21093;-78
2021/06/28 10:59:43;;;;;;;4.20;2.93;;;;;;;26.42;47.42;100229.33;1738731;80;21164;-76
2021/06/28 11:02:12;;;;;;;5.07;3.03;;;;;;;26.23;47.63;100226.77;1739731;80;21214;-78
2021/06/28 11:04:44;;;;;;;4.17;3.10;;;;;;;26.14;48.53;100229.18;1743497;80;21557;-76
2021/06/28 11:07:13;;;;;;;4.72;3.15;;;;;;;26.18;48.55;100229.23;1710278;81;21309;-77
2021/06/28 11:09:54;;;;;;;3.35;2.67;;;;;;;26.24;47.59;100222.86;1744796;80;21083;-76
2021/06/28 11:12:28;;;;;;;5.93;3.10;;;;;;;26.33;47.31;100226.89;1749607;80;21068;-79
2021/06/28 11:15:08;;;;;;;5.27;3.20;;;;;;;26.50;47.09;100231.62;1732267;81;21563;-77
2021/06/28 11:17:44;;;;;;;3.20;2.70;;;;;;;26.57;46.23;100218.02;1741856;79;21062;-77
2021/06/28 11:20:38;;;;;;;3.90;2.77;;;;;;;26.54;46.47;100214.66;1734765;80;21727;-75
2021/06/28 11:23:12;;;;;;;6.00;3.20;;;;;;;26.51;46.98;100220.28;1726063;81;21549;-77
2021/06/28 11:25:53;;;;;;;5.83;3.17;;;;;;;26.58;47.17;100223.11;1741390;80;21050;-77
2021/06/28 11:28:39;;;;;;;4.20;2.93;;;;;;;26.65;46.95;100214.18;1730450;82;21673;-79
2021/06/28 11:31:13;;;;;;;4.10;3.00;;;;;;;26.61;47.09;100216.87;1708813;81;21649;-75
2021/06/28 11:33:54;;;;;;;4.10;3.10;;;;;;;26.61;47.24;100218.25;1734932;80;21051;-71
2021/06/28 11:36:31;;;;;;;4.72;2.80;;;;;;;26.57;46.72;100214.69;1735275;81;21054;-74